sensor_id;sensor_type;location;lat;lon;timestamp;P1;durP1;ratioP1;P2;durP2;ratioP2
2840;SDS011;53423;49.224;12.074;2023-04-24T00:02:10;2.77;;;2.20;;
2840;SDS011;53423;49.224;12.074;2023-04-24T00:04:41;2.30;;;2.03;;
2840;SDS011;53423;49.224;12.074;2023-04-24T00:07:12;1.97;;;1.87;;
2840;SDS011;53423;49.224;12.074;2023-04-24T00:09:40;2.90;;;2.40;;
2840;SDS011;53423;49.224;12.074;2023-04-24T00:12:09;2.67;;;2.47;;
2840;SDS011;53423;49.224;12.074;2023-04-24T00:14:37;3.03;;;2.70;;
2840;SDS011;53423;49.224;12.074;2023-04-24T00:17:05;2.80;;;2.50;;
2840;SDS011;53423;49.224;12.074;2023-04-24T00:19:34;4.13;;;2.60;;
2840;SDS011;53423;49.224;12.074;2023-04-24T00:22:02;4.17;;;2.83;;
2840;SDS011;53423;49.224;12.074;2023-04-24T00:24:30;3.30;;;3.00;;
2840;SDS011;53423;49.224;12.074;2023-04-24T00:26:58;3.83;;;3.10;;
2840;SDS011;53423;49.224;12.074;2023-04-24T00:29:27;3.63;;;3.33;;
2840;SDS011;53423;49.224;12.074;2023-04-24T00:31:55;3.67;;;3.30;;
2840;SDS011;53423;49.224;12.074;2023-04-24T00:34:23;4.30;;;4.00;;
2840;SDS011;53423;49.224;12.074;2023-04-24T00:36:52;4.70;;;3.83;;
2840;SDS011;53423;49.224;12.074;2023-04-24T00:39:21;4.50;;;4.10;;
2840;SDS011;53423;49.224;12.074;2023-04-24T00:41:50;4.57;;;3.97;;
2840;SDS011;53423;49.224;12.074;2023-04-24T00:44:18;4.40;;;4.00;;
2840;SDS011;53423;49.224;12.074;2023-04-24T00:46:46;4.80;;;4.30;;
2840;SDS011;53423;49.224;12.074;2023-04-24T00:49:18;5.20;;;4.40;;
2840;SDS011;53423;49.224;12.074;2023-04-24T00:51:46;5.03;;;3.90;;
2840;SDS011;53423;49.224;12.074;2023-04-24T00:54:16;4.57;;;3.97;;
2840;SDS011;53423;49.224;12.074;2023-04-24T00:56:44;5.63;;;4.20;;
2840;SDS011;53423;49.224;12.074;2023-04-24T00:59:13;5.13;;;4.47;;
2840;SDS011;53423;49.224;12.074;2023-04-24T01:01:43;4.80;;;4.40;;
2840;SDS011;53423;49.224;12.074;2023-04-24T01:04:12;4.43;;;4.03;;
2840;SDS011;53423;49.224;12.074;2023-04-24T01:06:40;5.83;;;4.50;;
2840;SDS011;53423;49.224;12.074;2023-04-24T01:09:11;5.57;;;4.37;;
2840;SDS011;53423;49.224;12.074;2023-04-24T01:11:42;4.27;;;3.90;;
2840;SDS011;53423;49.224;12.074;2023-04-24T01:14:10;4.90;;;4.43;;
2840;SDS011;53423;49.224;12.074;2023-04-24T01:16:38;4.27;;;3.87;;
2840;SDS011;53423;49.224;12.074;2023-04-24T01:19:06;4.77;;;4.30;;
2840;SDS011;53423;49.224;12.074;2023-04-24T01:21:34;5.63;;;3.90;;
2840;SDS011;53423;49.224;12.074;2023-04-24T01:24:06;4.77;;;4.20;;
2840;SDS011;53423;49.224;12.074;2023-04-24T01:26:34;4.80;;;4.40;;
2840;SDS011;53423;49.224;12.074;2023-04-24T01:29:02;5.70;;;4.63;;
2840;SDS011;53423;49.224;12.074;2023-04-24T01:31:30;6.37;;;5.77;;
2840;SDS011;53423;49.224;12.074;2023-04-24T01:33:58;7.17;;;5.53;;
2840;SDS011;53423;49.224;12.074;2023-04-24T01:36:26;6.13;;;5.53;;
2840;SDS011;53423;49.224;12.074;2023-04-24T01:38:56;6.33;;;5.77;;
2840;SDS011;53423;49.224;12.074;2023-04-24T01:41:25;6.30;;;5.70;;
2840;SDS011;53423;49.224;12.074;2023-04-24T01:43:53;5.80;;;5.40;;
2840;SDS011;53423;49.224;12.074;2023-04-24T01:46:21;5.93;;;5.33;;
2840;SDS011;53423;49.224;12.074;2023-04-24T01:48:50;6.10;;;5.60;;
2840;SDS011;53423;49.224;12.074;2023-04-24T01:51:19;6.20;;;5.50;;
2840;SDS011;53423;49.224;12.074;2023-04-24T01:53:47;6.43;;;5.83;;
2840;SDS011;53423;49.224;12.074;2023-04-24T01:56:15;5.57;;;5.07;;
2840;SDS011;53423;49.224;12.074;2023-04-24T01:58:44;5.57;;;5.07;;
2840;SDS011;53423;49.224;12.074;2023-04-24T02:01:14;5.30;;;4.80;;
2840;SDS011;53423;49.224;12.074;2023-04-24T02:03:45;4.70;;;4.30;;
2840;SDS011;53423;49.224;12.074;2023-04-24T02:06:13;5.47;;;4.97;;
2840;SDS011;53423;49.224;12.074;2023-04-24T02:08:41;5.67;;;5.17;;
2840;SDS011;53423;49.224;12.074;2023-04-24T02:11:09;7.00;;;5.50;;
2840;SDS011;53423;49.224;12.074;2023-04-24T02:13:37;5.70;;;5.17;;
2840;SDS011;53423;49.224;12.074;2023-04-24T02:16:06;6.17;;;5.60;;
2840;SDS011;53423;49.224;12.074;2023-04-24T02:18:34;6.50;;;5.90;;
2840;SDS011;53423;49.224;12.074;2023-04-24T02:21:02;6.93;;;6.20;;
2840;SDS011;53423;49.224;12.074;2023-04-24T02:23:30;6.47;;;5.93;;
2840;SDS011;53423;49.224;12.074;2023-04-24T02:25:58;6.93;;;5.80;;
2840;SDS011;53423;49.224;12.074;2023-04-24T02:28:26;7.60;;;5.87;;
2840;SDS011;53423;49.224;12.074;2023-04-24T02:30:54;6.77;;;6.20;;
2840;SDS011;53423;49.224;12.074;2023-04-24T02:33:23;6.37;;;5.77;;
2840;SDS011;53423;49.224;12.074;2023-04-24T02:35:51;6.80;;;6.20;;
2840;SDS011;53423;49.224;12.074;2023-04-24T02:38:19;6.77;;;6.00;;
2840;SDS011;53423;49.224;12.074;2023-04-24T02:40:47;6.33;;;5.83;;
2840;SDS011;53423;49.224;12.074;2023-04-24T02:43:15;6.90;;;6.30;;
2840;SDS011;53423;49.224;12.074;2023-04-24T02:45:42;6.63;;;6.00;;
2840;SDS011;53423;49.224;12.074;2023-04-24T02:48:10;6.40;;;5.80;;
2840;SDS011;53423;49.224;12.074;2023-04-24T02:50:40;6.53;;;5.90;;
2840;SDS011;53423;49.224;12.074;2023-04-24T02:53:08;6.53;;;5.80;;
2840;SDS011;53423;49.224;12.074;2023-04-24T02:55:36;6.73;;;6.13;;
2840;SDS011;53423;49.224;12.074;2023-04-24T02:58:03;6.30;;;5.10;;
2840;SDS011;53423;49.224;12.074;2023-04-24T03:00:32;6.30;;;5.70;;
2840;SDS011;53423;49.224;12.074;2023-04-24T03:03:00;5.90;;;5.50;;
2840;SDS011;53423;49.224;12.074;2023-04-24T03:05:29;5.40;;;4.90;;
2840;SDS011;53423;49.224;12.074;2023-04-24T03:07:58;4.60;;;4.20;;
2840;SDS011;53423;49.224;12.074;2023-04-24T03:10:26;5.67;;;5.17;;
2840;SDS011;53423;49.224;12.074;2023-04-24T03:12:54;5.73;;;5.23;;
2840;SDS011;53423;49.224;12.074;2023-04-24T03:15:22;6.00;;;5.03;;
2840;SDS011;53423;49.224;12.074;2023-04-24T03:17:50;5.20;;;4.70;;
2840;SDS011;53423;49.224;12.074;2023-04-24T03:20:21;6.07;;;4.93;;
2840;SDS011;53423;49.224;12.074;2023-04-24T03:22:50;5.20;;;4.80;;
2840;SDS011;53423;49.224;12.074;2023-04-24T03:25:19;8.67;;;6.10;;
2840;SDS011;53423;49.224;12.074;2023-04-24T03:27:47;5.20;;;4.77;;
2840;SDS011;53423;49.224;12.074;2023-04-24T03:30:15;7.73;;;4.57;;
2840;SDS011;53423;49.224;12.074;2023-04-24T03:32:43;7.03;;;5.53;;
2840;SDS011;53423;49.224;12.074;2023-04-24T03:35:11;4.93;;;4.57;;
2840;SDS011;53423;49.224;12.074;2023-04-24T03:37:39;5.50;;;5.03;;
2840;SDS011;53423;49.224;12.074;2023-04-24T03:40:07;6.13;;;5.63;;
2840;SDS011;53423;49.224;12.074;2023-04-24T03:42:37;6.00;;;5.40;;
2840;SDS011;53423;49.224;12.074;2023-04-24T03:45:06;5.07;;;4.60;;
2840;SDS011;53423;49.224;12.074;2023-04-24T03:47:34;5.00;;;4.60;;
2840;SDS011;53423;49.224;12.074;2023-04-24T03:50:02;4.67;;;4.27;;
2840;SDS011;53423;49.224;12.074;2023-04-24T03:52:31;4.63;;;4.33;;
2840;SDS011;53423;49.224;12.074;2023-04-24T03:54:59;8.57;;;4.57;;
2840;SDS011;53423;49.224;12.074;2023-04-24T03:57:26;5.80;;;4.23;;
2840;SDS011;53423;49.224;12.074;2023-04-24T03:59:56;5.27;;;4.80;;
2840;SDS011;53423;49.224;12.074;2023-04-24T04:02:23;4.73;;;4.33;;
2840;SDS011;53423;49.224;12.074;2023-04-24T04:04:52;4.37;;;3.93;;
2840;SDS011;53423;49.224;12.074;2023-04-24T04:07:20;4.00;;;3.70;;
2840;SDS011;53423;49.224;12.074;2023-04-24T04:09:47;4.60;;;4.20;;
2840;SDS011;53423;49.224;12.074;2023-04-24T04:12:15;4.83;;;4.43;;
2840;SDS011;53423;49.224;12.074;2023-04-24T04:14:43;4.93;;;4.53;;
2840;SDS011;53423;49.224;12.074;2023-04-24T04:17:13;4.60;;;4.20;;
2840;SDS011;53423;49.224;12.074;2023-04-24T04:19:41;5.50;;;5.00;;
2840;SDS011;53423;49.224;12.074;2023-04-24T04:22:09;4.60;;;4.20;;
2840;SDS011;53423;49.224;12.074;2023-04-24T04:24:37;5.73;;;5.07;;
2840;SDS011;53423;49.224;12.074;2023-04-24T04:27:07;5.03;;;4.63;;
2840;SDS011;53423;49.224;12.074;2023-04-24T04:29:35;5.90;;;5.40;;
2840;SDS011;53423;49.224;12.074;2023-04-24T04:32:03;6.07;;;5.47;;
2840;SDS011;53423;49.224;12.074;2023-04-24T04:34:33;6.80;;;5.23;;
2840;SDS011;53423;49.224;12.074;2023-04-24T04:37:00;7.57;;;6.27;;
2840;SDS011;53423;49.224;12.074;2023-04-24T04:39:28;6.83;;;6.23;;
2840;SDS011;53423;49.224;12.074;2023-04-24T04:41:56;6.50;;;6.00;;
2840;SDS011;53423;49.224;12.074;2023-04-24T04:44:24;6.87;;;6.27;;
2840;SDS011;53423;49.224;12.074;2023-04-24T04:46:55;6.27;;;5.73;;
2840;SDS011;53423;49.224;12.074;2023-04-24T04:49:24;6.60;;;6.00;;
2840;SDS011;53423;49.224;12.074;2023-04-24T04:51:56;5.87;;;5.37;;
2840;SDS011;53423;49.224;12.074;2023-04-24T04:54:24;8.03;;;7.33;;
2840;SDS011;53423;49.224;12.074;2023-04-24T04:56:51;6.17;;;5.70;;
2840;SDS011;53423;49.224;12.074;2023-04-24T04:59:19;6.97;;;5.97;;
2840;SDS011;53423;49.224;12.074;2023-04-24T05:01:47;8.57;;;7.87;;
2840;SDS011;53423;49.224;12.074;2023-04-24T05:04:15;8.63;;;7.93;;
2840;SDS011;53423;49.224;12.074;2023-04-24T05:06:44;11.30;;;8.00;;
2840;SDS011;53423;49.224;12.074;2023-04-24T05:09:14;8.20;;;7.50;;
2840;SDS011;53423;49.224;12.074;2023-04-24T05:11:42;8.20;;;7.50;;
2840;SDS011;53423;49.224;12.074;2023-04-24T05:14:10;8.27;;;7.40;;
2840;SDS011;53423;49.224;12.074;2023-04-24T05:16:39;8.17;;;7.10;;
2840;SDS011;53423;49.224;12.074;2023-04-24T05:19:07;6.97;;;6.43;;
2840;SDS011;53423;49.224;12.074;2023-04-24T05:21:37;7.40;;;6.70;;
2840;SDS011;53423;49.224;12.074;2023-04-24T05:24:05;7.50;;;6.77;;
2840;SDS011;53423;49.224;12.074;2023-04-24T05:26:35;7.77;;;6.97;;
2840;SDS011;53423;49.224;12.074;2023-04-24T05:29:03;7.87;;;7.17;;
2840;SDS011;53423;49.224;12.074;2023-04-24T05:31:31;6.33;;;5.80;;
2840;SDS011;53423;49.224;12.074;2023-04-24T05:33:59;5.83;;;5.40;;
2840;SDS011;53423;49.224;12.074;2023-04-24T05:36:27;5.77;;;5.27;;
2840;SDS011;53423;49.224;12.074;2023-04-24T05:38:55;6.13;;;5.63;;
2840;SDS011;53423;49.224;12.074;2023-04-24T05:41:23;5.53;;;5.03;;
2840;SDS011;53423;49.224;12.074;2023-04-24T05:43:52;5.80;;;5.33;;
2840;SDS011;53423;49.224;12.074;2023-04-24T05:46:20;5.50;;;5.00;;
2840;SDS011;53423;49.224;12.074;2023-04-24T05:48:48;5.53;;;5.13;;
2840;SDS011;53423;49.224;12.074;2023-04-24T05:51:16;5.00;;;4.60;;
2840;SDS011;53423;49.224;12.074;2023-04-24T05:53:44;4.60;;;4.20;;
2840;SDS011;53423;49.224;12.074;2023-04-24T05:56:12;4.50;;;4.20;;
2840;SDS011;53423;49.224;12.074;2023-04-24T05:58:39;5.50;;;4.60;;
2840;SDS011;53423;49.224;12.074;2023-04-24T06:01:09;4.27;;;3.87;;
2840;SDS011;53423;49.224;12.074;2023-04-24T06:03:37;4.87;;;4.13;;
2840;SDS011;53423;49.224;12.074;2023-04-24T06:06:05;4.77;;;4.30;;
2840;SDS011;53423;49.224;12.074;2023-04-24T06:08:34;4.47;;;4.03;;
2840;SDS011;53423;49.224;12.074;2023-04-24T06:11:02;4.60;;;3.80;;
2840;SDS011;53423;49.224;12.074;2023-04-24T06:13:30;4.37;;;4.07;;
2840;SDS011;53423;49.224;12.074;2023-04-24T06:15:58;4.30;;;3.90;;
2840;SDS011;53423;49.224;12.074;2023-04-24T06:18:27;3.70;;;3.40;;
2840;SDS011;53423;49.224;12.074;2023-04-24T06:20:55;4.00;;;3.70;;
2840;SDS011;53423;49.224;12.074;2023-04-24T06:23:23;4.83;;;3.53;;
2840;SDS011;53423;49.224;12.074;2023-04-24T06:25:51;4.00;;;3.70;;
2840;SDS011;53423;49.224;12.074;2023-04-24T06:28:19;5.07;;;3.83;;
2840;SDS011;53423;49.224;12.074;2023-04-24T06:30:47;4.07;;;3.77;;
2840;SDS011;53423;49.224;12.074;2023-04-24T06:33:15;3.87;;;3.57;;
2840;SDS011;53423;49.224;12.074;2023-04-24T06:35:48;3.17;;;2.97;;
2840;SDS011;53423;49.224;12.074;2023-04-24T06:38:16;5.37;;;3.90;;
2840;SDS011;53423;49.224;12.074;2023-04-24T06:40:44;3.17;;;2.97;;
2840;SDS011;53423;49.224;12.074;2023-04-24T06:43:12;3.50;;;3.20;;
2840;SDS011;53423;49.224;12.074;2023-04-24T06:45:41;3.40;;;3.20;;
2840;SDS011;53423;49.224;12.074;2023-04-24T06:48:10;3.30;;;3.00;;
2840;SDS011;53423;49.224;12.074;2023-04-24T06:50:38;2.90;;;2.70;;
2840;SDS011;53423;49.224;12.074;2023-04-24T06:53:07;3.00;;;2.80;;
2840;SDS011;53423;49.224;12.074;2023-04-24T06:55:37;3.07;;;2.87;;
2840;SDS011;53423;49.224;12.074;2023-04-24T06:58:05;3.20;;;2.90;;
2840;SDS011;53423;49.224;12.074;2023-04-24T07:00:33;3.17;;;2.97;;
2840;SDS011;53423;49.224;12.074;2023-04-24T07:03:01;3.37;;;3.07;;
2840;SDS011;53423;49.224;12.074;2023-04-24T07:05:29;3.70;;;3.40;;
2840;SDS011;53423;49.224;12.074;2023-04-24T07:07:57;2.97;;;2.67;;
2840;SDS011;53423;49.224;12.074;2023-04-24T07:10:27;2.57;;;2.37;;
2840;SDS011;53423;49.224;12.074;2023-04-24T07:12:55;2.53;;;2.30;;
2840;SDS011;53423;49.224;12.074;2023-04-24T07:15:23;2.20;;;2.00;;
2840;SDS011;53423;49.224;12.074;2023-04-24T07:17:51;2.30;;;2.20;;
2840;SDS011;53423;49.224;12.074;2023-04-24T07:20:19;2.00;;;1.90;;
2840;SDS011;53423;49.224;12.074;2023-04-24T07:22:47;2.20;;;2.00;;
2840;SDS011;53423;49.224;12.074;2023-04-24T07:25:15;3.27;;;2.27;;
2840;SDS011;53423;49.224;12.074;2023-04-24T07:27:45;2.30;;;2.10;;
2840;SDS011;53423;49.224;12.074;2023-04-24T07:30:13;2.30;;;2.10;;
2840;SDS011;53423;49.224;12.074;2023-04-24T07:32:41;2.67;;;1.87;;
2840;SDS011;53423;49.224;12.074;2023-04-24T07:35:09;3.07;;;2.50;;
2840;SDS011;53423;49.224;12.074;2023-04-24T07:37:37;2.70;;;2.30;;
2840;SDS011;53423;49.224;12.074;2023-04-24T07:40:05;2.47;;;1.87;;
2840;SDS011;53423;49.224;12.074;2023-04-24T07:42:34;5.97;;;2.80;;
2840;SDS011;53423;49.224;12.074;2023-04-24T07:45:04;4.07;;;1.77;;
2840;SDS011;53423;49.224;12.074;2023-04-24T07:47:33;1.60;;;1.50;;
2840;SDS011;53423;49.224;12.074;2023-04-24T07:50:03;2.87;;;1.90;;
2840;SDS011;53423;49.224;12.074;2023-04-24T07:52:31;3.27;;;1.50;;
2840;SDS011;53423;49.224;12.074;2023-04-24T07:54:59;2.17;;;1.17;;
2840;SDS011;53423;49.224;12.074;2023-04-24T07:57:28;2.10;;;1.40;;
2840;SDS011;53423;49.224;12.074;2023-04-24T07:59:56;1.57;;;1.40;;
2840;SDS011;53423;49.224;12.074;2023-04-24T08:02:25;1.40;;;1.10;;
2840;SDS011;53423;49.224;12.074;2023-04-24T08:04:53;1.10;;;1.00;;
2840;SDS011;53423;49.224;12.074;2023-04-24T08:07:24;1.10;;;1.00;;
2840;SDS011;53423;49.224;12.074;2023-04-24T08:09:52;2.87;;;1.20;;
2840;SDS011;53423;49.224;12.074;2023-04-24T08:12:20;2.43;;;1.17;;
2840;SDS011;53423;49.224;12.074;2023-04-24T08:14:48;1.30;;;1.07;;
2840;SDS011;53423;49.224;12.074;2023-04-24T08:17:16;1.90;;;1.10;;
2840;SDS011;53423;49.224;12.074;2023-04-24T08:19:46;3.20;;;0.93;;
2840;SDS011;53423;49.224;12.074;2023-04-24T08:22:14;1.60;;;0.97;;
2840;SDS011;53423;49.224;12.074;2023-04-24T08:24:42;1.77;;;0.90;;
2840;SDS011;53423;49.224;12.074;2023-04-24T08:27:10;1.57;;;1.10;;
2840;SDS011;53423;49.224;12.074;2023-04-24T08:29:38;1.83;;;1.00;;
2840;SDS011;53423;49.224;12.074;2023-04-24T08:32:06;1.50;;;1.37;;
2840;SDS011;53423;49.224;12.074;2023-04-24T08:34:34;1.50;;;1.10;;
2840;SDS011;53423;49.224;12.074;2023-04-24T08:37:04;0.93;;;0.90;;
2840;SDS011;53423;49.224;12.074;2023-04-24T08:39:32;2.70;;;1.13;;
2840;SDS011;53423;49.224;12.074;2023-04-24T08:41:59;1.10;;;1.00;;
2840;SDS011;53423;49.224;12.074;2023-04-24T08:44:34;2.23;;;1.40;;
2840;SDS011;53423;49.224;12.074;2023-04-24T08:47:03;2.50;;;1.37;;
2840;SDS011;53423;49.224;12.074;2023-04-24T08:49:32;1.47;;;1.37;;
2840;SDS011;53423;49.224;12.074;2023-04-24T08:52:01;1.50;;;1.40;;
2840;SDS011;53423;49.224;12.074;2023-04-24T08:54:30;2.00;;;1.40;;
2840;SDS011;53423;49.224;12.074;2023-04-24T08:56:59;1.50;;;1.40;;
2840;SDS011;53423;49.224;12.074;2023-04-24T08:59:30;2.30;;;1.80;;
2840;SDS011;53423;49.224;12.074;2023-04-24T09:01:59;2.00;;;1.70;;
2840;SDS011;53423;49.224;12.074;2023-04-24T09:04:27;2.30;;;2.00;;
2840;SDS011;53423;49.224;12.074;2023-04-24T09:06:57;3.33;;;2.40;;
2840;SDS011;53423;49.224;12.074;2023-04-24T09:09:25;2.43;;;1.97;;
2840;SDS011;53423;49.224;12.074;2023-04-24T09:11:58;2.37;;;2.00;;
2840;SDS011;53423;49.224;12.074;2023-04-24T09:14:27;2.63;;;1.80;;
2840;SDS011;53423;49.224;12.074;2023-04-24T09:16:58;2.17;;;1.97;;
2840;SDS011;53423;49.224;12.074;2023-04-24T09:19:26;1.60;;;1.50;;
2840;SDS011;53423;49.224;12.074;2023-04-24T09:21:54;4.13;;;1.30;;
2840;SDS011;53423;49.224;12.074;2023-04-24T09:24:22;1.57;;;1.17;;
2840;SDS011;53423;49.224;12.074;2023-04-24T09:26:55;1.20;;;1.10;;
2840;SDS011;53423;49.224;12.074;2023-04-24T09:29:26;1.60;;;1.30;;
2840;SDS011;53423;49.224;12.074;2023-04-24T09:31:55;1.40;;;1.30;;
2840;SDS011;53423;49.224;12.074;2023-04-24T09:34:23;1.20;;;1.10;;
2840;SDS011;53423;49.224;12.074;2023-04-24T09:36:53;1.87;;;1.23;;
2840;SDS011;53423;49.224;12.074;2023-04-24T09:39:22;1.30;;;1.20;;
2840;SDS011;53423;49.224;12.074;2023-04-24T09:41:50;2.23;;;1.30;;
2840;SDS011;53423;49.224;12.074;2023-04-24T09:44:19;1.97;;;1.30;;
2840;SDS011;53423;49.224;12.074;2023-04-24T09:46:51;1.40;;;1.30;;
2840;SDS011;53423;49.224;12.074;2023-04-24T09:49:22;1.47;;;1.37;;
2840;SDS011;53423;49.224;12.074;2023-04-24T09:51:51;1.73;;;1.50;;
2840;SDS011;53423;49.224;12.074;2023-04-24T09:54:20;2.53;;;1.40;;
2840;SDS011;53423;49.224;12.074;2023-04-24T09:56:49;1.50;;;1.30;;
2840;SDS011;53423;49.224;12.074;2023-04-24T09:59:19;1.60;;;1.50;;
2840;SDS011;53423;49.224;12.074;2023-04-24T10:01:47;1.70;;;1.60;;
2840;SDS011;53423;49.224;12.074;2023-04-24T10:04:18;2.97;;;1.70;;
2840;SDS011;53423;49.224;12.074;2023-04-24T10:06:47;1.90;;;1.70;;
2840;SDS011;53423;49.224;12.074;2023-04-24T10:09:16;2.07;;;1.20;;
2840;SDS011;53423;49.224;12.074;2023-04-24T10:11:45;1.37;;;1.33;;
2840;SDS011;53423;49.224;12.074;2023-04-24T10:14:15;1.70;;;1.53;;
2840;SDS011;53423;49.224;12.074;2023-04-24T10:16:45;1.37;;;1.27;;
2840;SDS011;53423;49.224;12.074;2023-04-24T10:19:14;1.60;;;1.50;;
2840;SDS011;53423;49.224;12.074;2023-04-24T10:21:44;1.13;;;1.00;;
2840;SDS011;53423;49.224;12.074;2023-04-24T10:24:14;2.17;;;1.53;;
2840;SDS011;53423;49.224;12.074;2023-04-24T10:26:43;1.27;;;1.20;;
2840;SDS011;53423;49.224;12.074;2023-04-24T10:29:15;1.40;;;1.30;;
2840;SDS011;53423;49.224;12.074;2023-04-24T10:31:44;1.30;;;1.30;;
2840;SDS011;53423;49.224;12.074;2023-04-24T10:34:14;1.90;;;1.30;;
2840;SDS011;53423;49.224;12.074;2023-04-24T10:36:46;1.63;;;1.53;;
2840;SDS011;53423;49.224;12.074;2023-04-24T10:39:16;1.23;;;1.20;;
2840;SDS011;53423;49.224;12.074;2023-04-24T10:41:53;1.53;;;1.40;;
2840;SDS011;53423;49.224;12.074;2023-04-24T10:44:22;1.70;;;1.60;;
2840;SDS011;53423;49.224;12.074;2023-04-24T10:46:52;1.63;;;1.50;;
2840;SDS011;53423;49.224;12.074;2023-04-24T10:49:27;1.43;;;1.33;;
2840;SDS011;53423;49.224;12.074;2023-04-24T10:51:59;1.20;;;1.20;;
2840;SDS011;53423;49.224;12.074;2023-04-24T10:54:28;2.20;;;1.60;;
2840;SDS011;53423;49.224;12.074;2023-04-24T11:00:16;1.37;;;1.23;;
2840;SDS011;53423;49.224;12.074;2023-04-24T11:02:47;2.30;;;1.43;;
2840;SDS011;53423;49.224;12.074;2023-04-24T11:05:17;2.03;;;1.60;;
2840;SDS011;53423;49.224;12.074;2023-04-24T11:10:40;1.30;;;1.13;;
2840;SDS011;53423;49.224;12.074;2023-04-24T11:13:14;1.50;;;1.20;;
2840;SDS011;53423;49.224;12.074;2023-04-24T11:15:42;3.13;;;1.50;;
2840;SDS011;53423;49.224;12.074;2023-04-24T11:18:13;1.73;;;1.43;;
2840;SDS011;53423;49.224;12.074;2023-04-24T11:20:42;1.70;;;1.43;;
2840;SDS011;53423;49.224;12.074;2023-04-24T11:23:12;1.80;;;1.17;;
2840;SDS011;53423;49.224;12.074;2023-04-24T11:25:41;1.50;;;1.40;;
2840;SDS011;53423;49.224;12.074;2023-04-24T11:28:09;1.47;;;1.37;;
2840;SDS011;53423;49.224;12.074;2023-04-24T11:30:42;1.47;;;1.30;;
2840;SDS011;53423;49.224;12.074;2023-04-24T11:33:10;3.43;;;1.33;;
2840;SDS011;53423;49.224;12.074;2023-04-24T11:35:39;1.87;;;1.27;;
2840;SDS011;53423;49.224;12.074;2023-04-24T11:38:07;1.80;;;1.43;;
2840;SDS011;53423;49.224;12.074;2023-04-24T11:40:51;3.27;;;1.37;;
2840;SDS011;53423;49.224;12.074;2023-04-24T11:43:19;1.70;;;1.37;;
2840;SDS011;53423;49.224;12.074;2023-04-24T11:45:48;1.53;;;1.43;;
2840;SDS011;53423;49.224;12.074;2023-04-24T11:48:18;1.47;;;1.37;;
2840;SDS011;53423;49.224;12.074;2023-04-24T11:50:49;1.60;;;1.50;;
2840;SDS011;53423;49.224;12.074;2023-04-24T11:53:18;2.83;;;2.63;;
2840;SDS011;53423;49.224;12.074;2023-04-24T11:55:46;2.00;;;1.80;;
2840;SDS011;53423;49.224;12.074;2023-04-24T11:58:16;2.43;;;2.23;;
2840;SDS011;53423;49.224;12.074;2023-04-24T12:00:55;1.70;;;1.60;;
2840;SDS011;53423;49.224;12.074;2023-04-24T12:03:23;1.60;;;1.50;;
2840;SDS011;53423;49.224;12.074;2023-04-24T12:05:52;1.60;;;1.23;;
2840;SDS011;53423;49.224;12.074;2023-04-24T12:08:26;1.67;;;1.57;;
2840;SDS011;53423;49.224;12.074;2023-04-24T12:10:55;3.83;;;1.60;;
2840;SDS011;53423;49.224;12.074;2023-04-24T12:13:26;1.57;;;1.47;;
2840;SDS011;53423;49.224;12.074;2023-04-24T12:15:54;1.33;;;1.20;;
2840;SDS011;53423;49.224;12.074;2023-04-24T12:18:22;2.50;;;1.43;;
2840;SDS011;53423;49.224;12.074;2023-04-24T12:20:50;1.10;;;1.10;;
2840;SDS011;53423;49.224;12.074;2023-04-24T12:23:32;1.37;;;1.27;;
2840;SDS011;53423;49.224;12.074;2023-04-24T12:26:03;1.37;;;1.27;;
2840;SDS011;53423;49.224;12.074;2023-04-24T12:28:36;2.70;;;1.27;;
2840;SDS011;53423;49.224;12.074;2023-04-24T12:31:04;1.97;;;1.40;;
2840;SDS011;53423;49.224;12.074;2023-04-24T12:33:35;1.40;;;1.23;;
2840;SDS011;53423;49.224;12.074;2023-04-24T12:36:03;1.20;;;1.20;;
2840;SDS011;53423;49.224;12.074;2023-04-24T12:38:32;1.70;;;1.23;;
2840;SDS011;53423;49.224;12.074;2023-04-24T12:41:07;2.83;;;1.00;;
2840;SDS011;53423;49.224;12.074;2023-04-24T12:43:38;1.20;;;1.00;;
2840;SDS011;53423;49.224;12.074;2023-04-24T12:46:17;1.00;;;1.00;;
2840;SDS011;53423;49.224;12.074;2023-04-24T12:48:48;1.67;;;0.97;;
2840;SDS011;53423;49.224;12.074;2023-04-24T12:51:15;0.70;;;0.70;;
2840;SDS011;53423;49.224;12.074;2023-04-24T12:53:43;0.97;;;0.90;;
2840;SDS011;53423;49.224;12.074;2023-04-24T12:56:11;1.37;;;1.03;;
2840;SDS011;53423;49.224;12.074;2023-04-24T12:58:41;2.80;;;1.10;;
2840;SDS011;53423;49.224;12.074;2023-04-24T13:01:08;1.23;;;1.00;;
2840;SDS011;53423;49.224;12.074;2023-04-24T13:03:36;1.90;;;1.30;;
2840;SDS011;53423;49.224;12.074;2023-04-24T13:06:05;1.10;;;1.00;;
2840;SDS011;53423;49.224;12.074;2023-04-24T13:08:33;0.80;;;0.80;;
2840;SDS011;53423;49.224;12.074;2023-04-24T13:11:01;1.00;;;1.00;;
2840;SDS011;53423;49.224;12.074;2023-04-24T13:13:29;1.37;;;0.90;;
2840;SDS011;53423;49.224;12.074;2023-04-24T13:15:58;0.80;;;0.80;;
2840;SDS011;53423;49.224;12.074;2023-04-24T13:18:26;1.80;;;1.30;;
2840;SDS011;53423;49.224;12.074;2023-04-24T13:20:54;2.00;;;1.20;;
2840;SDS011;53423;49.224;12.074;2023-04-24T13:23:22;1.30;;;1.20;;
2840;SDS011;53423;49.224;12.074;2023-04-24T13:25:50;0.83;;;0.80;;
2840;SDS011;53423;49.224;12.074;2023-04-24T13:28:19;0.80;;;0.80;;
2840;SDS011;53423;49.224;12.074;2023-04-24T13:30:47;1.23;;;1.13;;
2840;SDS011;53423;49.224;12.074;2023-04-24T13:33:18;0.90;;;0.90;;
2840;SDS011;53423;49.224;12.074;2023-04-24T13:35:46;1.57;;;1.40;;
2840;SDS011;53423;49.224;12.074;2023-04-24T13:38:14;1.30;;;1.23;;
2840;SDS011;53423;49.224;12.074;2023-04-24T13:40:42;1.60;;;1.50;;
2840;SDS011;53423;49.224;12.074;2023-04-24T13:43:10;2.77;;;1.40;;
2840;SDS011;53423;49.224;12.074;2023-04-24T13:45:38;1.53;;;1.43;;
2840;SDS011;53423;49.224;12.074;2023-04-24T13:48:06;1.67;;;1.57;;
2840;SDS011;53423;49.224;12.074;2023-04-24T13:50:36;1.40;;;1.30;;
2840;SDS011;53423;49.224;12.074;2023-04-24T13:53:04;2.23;;;1.20;;
2840;SDS011;53423;49.224;12.074;2023-04-24T13:55:32;1.20;;;1.20;;
2840;SDS011;53423;49.224;12.074;2023-04-24T13:58:00;1.60;;;1.50;;
2840;SDS011;53423;49.224;12.074;2023-04-24T14:00:28;1.90;;;1.37;;
2840;SDS011;53423;49.224;12.074;2023-04-24T14:02:57;1.40;;;1.30;;
2840;SDS011;53423;49.224;12.074;2023-04-24T14:05:25;1.77;;;1.67;;
2840;SDS011;53423;49.224;12.074;2023-04-24T14:07:54;1.43;;;1.33;;
2840;SDS011;53423;49.224;12.074;2023-04-24T14:10:22;1.50;;;1.40;;
2840;SDS011;53423;49.224;12.074;2023-04-24T14:12:50;1.37;;;1.23;;
2840;SDS011;53423;49.224;12.074;2023-04-24T14:15:19;2.80;;;1.60;;
2840;SDS011;53423;49.224;12.074;2023-04-24T14:17:47;2.57;;;1.30;;
2840;SDS011;53423;49.224;12.074;2023-04-24T14:20:16;1.33;;;1.23;;
2840;SDS011;53423;49.224;12.074;2023-04-24T14:22:44;2.20;;;1.50;;
2840;SDS011;53423;49.224;12.074;2023-04-24T14:25:13;1.83;;;1.20;;
2840;SDS011;53423;49.224;12.074;2023-04-24T14:27:41;1.40;;;1.30;;
2840;SDS011;53423;49.224;12.074;2023-04-24T14:30:09;1.30;;;1.30;;
2840;SDS011;53423;49.224;12.074;2023-04-24T14:32:38;3.03;;;1.13;;
2840;SDS011;53423;49.224;12.074;2023-04-24T14:35:07;1.23;;;1.03;;
2840;SDS011;53423;49.224;12.074;2023-04-24T14:37:35;0.90;;;0.90;;
2840;SDS011;53423;49.224;12.074;2023-04-24T14:40:04;1.30;;;1.03;;
2840;SDS011;53423;49.224;12.074;2023-04-24T14:42:38;1.13;;;1.13;;
2840;SDS011;53423;49.224;12.074;2023-04-24T14:45:06;1.37;;;1.07;;
2840;SDS011;53423;49.224;12.074;2023-04-24T14:47:36;0.90;;;0.90;;
2840;SDS011;53423;49.224;12.074;2023-04-24T14:50:04;1.90;;;1.17;;
2840;SDS011;53423;49.224;12.074;2023-04-24T14:52:34;0.90;;;0.83;;
2840;SDS011;53423;49.224;12.074;2023-04-24T14:55:02;1.63;;;1.10;;
2840;SDS011;53423;49.224;12.074;2023-04-24T14:57:30;1.40;;;1.30;;
2840;SDS011;53423;49.224;12.074;2023-04-24T14:59:59;1.33;;;1.23;;
2840;SDS011;53423;49.224;12.074;2023-04-24T15:02:27;1.00;;;1.00;;
2840;SDS011;53423;49.224;12.074;2023-04-24T15:04:55;3.03;;;1.50;;